Time;durP1;ratioP1;P1;durP2;ratioP2;P2;SDS_P1;SDS_P2;PMS_P1;PMS_P2;Temp;Humidity;BMP_temperature;BMP_pressure;BME280_temperature;BME280_humidity;BME280_pressure;Samples;Min_cycle;Max_cycle;Signal;HPM_P1;HPM_P2
2021/08/06 00:02:21;;;;;;;4.82;2.30;;;;;;;25.20;52.60;98492.56;4425099;32;20052;-68
2021/08/06 00:04:47;;;;;;;5.72;2.47;;;;;;;24.97;53.12;98488.41;4426044;32;20346;-68
2021/08/06 00:07:13;;;;;;;3.45;2.65;;;;;;;25.07;53.01;98489.25;4423802;32;20106;-69
2021/08/06 00:09:39;;;;;;;3.00;2.17;;;;;;;25.08;53.24;98491.56;4424578;32;20112;-68
2021/08/06 00:12:07;;;;;;;2.97;2.10;;;;;;;24.95;53.44;98491.84;4425218;32;20544;-68
2021/08/06 00:14:34;;;;;;;4.15;2.30;;;;;;;25.31;52.82;98489.19;4423134;32;20071;-68
2021/08/06 00:17:00;;;;;;;3.12;2.22;;;;;;;25.06;52.99;98491.37;4422163;32;20029;-68
2021/08/06 00:19:26;;;;;;;4.30;2.37;;;;;;;25.15;52.99;98492.81;4423214;32;20417;-68
2021/08/06 00:21:51;;;;;;;4.82;2.67;;;;;;;24.97;53.18;98482.63;4426951;32;20543;-68
2021/08/06 00:24:17;;;;;;;4.87;2.78;;;;;;;25.08;52.69;98485.78;4419817;32;21160;-68
2021/08/06 00:26:43;;;;;;;3.70;2.42;;;;;;;25.27;52.18;98491.72;4425207;32;20069;-67
2021/08/06 00:29:09;;;;;;;6.62;3.42;;;;;;;25.38;52.14;98485.44;4421967;32;20402;-68
2021/08/06 00:31:36;;;;;;;4.60;2.87;;;;;;;25.40;52.13;98484.09;4421580;32;20030;-68
2021/08/06 00:34:02;;;;;;;5.32;2.83;;;;;;;25.44;52.02;98478.66;4425111;32;20068;-68
2021/08/06 00:36:28;;;;;;;5.18;3.00;;;;;;;25.40;51.85;98486.97;4423611;32;20064;-68
2021/08/06 00:38:54;;;;;;;5.97;3.55;;;;;;;25.48;51.72;98479.00;4423577;32;20029;-68
2021/08/06 00:41:20;;;;;;;6.30;2.80;;;;;;;25.51;51.53;98483.56;4424590;32;20041;-68
2021/08/06 00:43:46;;;;;;;3.25;2.75;;;;;;;25.62;51.58;98488.81;4422541;32;20080;-68
2021/08/06 00:46:13;;;;;;;3.80;2.78;;;;;;;25.42;51.51;98490.78;4421837;32;20370;-68
2021/08/06 00:48:40;;;;;;;4.32;3.03;;;;;;;25.25;51.61;98497.28;4424509;32;20107;-68
2021/08/06 00:51:06;;;;;;;5.82;2.95;;;;;;;25.46;51.24;98488.22;4424410;32;20045;-68
2021/08/06 00:53:32;;;;;;;6.80;3.20;;;;;;;25.35;51.35;98489.50;4426208;32;20499;-68
2021/08/06 00:55:58;;;;;;;4.18;2.60;;;;;;;25.50;50.94;98484.94;4425687;32;20084;-68
2021/08/06 00:58:23;;;;;;;3.40;2.20;;;;;;;25.39;50.54;98489.09;4421343;32;20041;-68
2021/08/06 01:00:49;;;;;;;4.07;2.45;;;;;;;25.35;51.08;98489.50;4423036;32;20105;-68
2021/08/06 01:06:02;;;;;;;3.00;2.60;;;;;;;25.99;49.94;98479.66;3981382;31;15839561;-68
2021/08/06 01:08:36;;;;;;;4.35;3.10;;;;;;;25.99;49.94;98479.66;4463284;32;20045;-68
2021/08/06 01:11:04;;;;;;;4.90;3.00;;;;;;;25.49;50.82;98477.66;4465673;32;20958;-68
2021/08/06 01:16:10;;;;;;;3.87;2.50;;;;;;;25.71;50.24;98485.22;3983882;32;15022484;-67
2021/08/06 01:18:40;;;;;;;5.62;2.70;;;;;;;25.71;50.24;98485.22;4431906;32;20048;-67
2021/08/06 01:21:13;;;;;;;6.95;3.05;;;;;;;25.40;50.27;98478.34;4436382;32;20065;-67
2021/08/06 01:23:41;;;;;;;4.82;3.28;;;;;;;25.62;50.24;98477.28;4431045;32;20081;-67
2021/08/06 01:26:09;;;;;;;5.55;3.47;;;;;;;25.47;50.74;98477.47;4434237;32;20095;-67
2021/08/06 01:28:39;;;;;;;5.50;3.17;;;;;;;25.47;50.94;98469.63;4435312;32;20033;-67
2021/08/06 01:31:07;;;;;;;5.50;2.72;;;;;;;25.53;50.43;98475.09;4433572;32;20033;-67
2021/08/06 01:33:33;;;;;;;4.20;2.72;;;;;;;25.59;50.26;98479.25;4431350;32;20100;-67
2021/08/06 01:35:59;;;;;;;7.28;3.00;;;;;;;25.35;50.93;98462.84;4430015;32;20033;-67
2021/08/06 01:38:26;;;;;;;4.87;3.00;;;;;;;25.22;50.73;98472.56;4434527;32;20057;-67
2021/08/06 01:43:34;;;;;;;5.53;3.03;;;;;;;25.77;50.08;98457.66;3969732;32;15028852;-68
2021/08/06 01:46:09;;;;;;;5.45;3.37;;;;;;;25.77;50.08;98457.66;4424464;32;20076;-68
2021/08/06 01:48:36;;;;;;;4.72;3.12;;;;;;;25.48;50.26;98471.13;4422439;32;20060;-68
2021/08/06 01:51:06;;;;;;;8.50;3.70;;;;;;;25.28;50.65;98461.56;4425177;32;21067;-68
2021/08/06 01:53:38;;;;;;;5.07;3.60;;;;;;;25.45;50.53;98468.66;4425373;32;20091;-68
2021/08/06 01:56:08;;;;;;;7.05;3.30;;;;;;;25.50;50.48;98468.41;4425212;32;20077;-68
2021/08/06 01:58:36;;;;;;;7.68;3.45;;;;;;;25.54;50.49;98462.97;4422998;32;20387;-68
2021/08/06 02:01:12;;;;;;;10.00;4.40;;;;;;;25.32;50.46;98467.66;4425773;32;20085;-68
2021/08/06 02:03:40;;;;;;;10.20;4.72;;;;;;;25.51;49.74;98466.28;4423002;32;20033;-68
2021/08/06 02:06:07;;;;;;;6.45;4.70;;;;;;;25.42;50.34;98466.97;4423452;32;20034;-69
2021/08/06 02:08:35;;;;;;;9.52;4.68;;;;;;;25.14;50.44;98457.53;4424333;32;20447;-69
2021/08/06 02:11:02;;;;;;;7.75;4.47;;;;;;;25.31;50.54;98454.63;4423883;32;20079;-68
2021/08/06 02:13:27;;;;;;;5.70;4.37;;;;;;;24.87;51.18;98461.66;4423931;32;20030;-69
2021/08/06 02:15:54;;;;;;;11.50;5.40;;;;;;;24.83;51.01;98462.09;4423821;32;20030;-68
2021/08/06 02:18:23;;;;;;;6.80;4.35;;;;;;;24.99;50.74;98460.56;4418706;32;20388;-69
2021/08/06 02:20:55;;;;;;;9.40;5.32;;;;;;;24.79;50.74;98458.84;4424364;32;20104;-68
2021/08/06 02:23:23;;;;;;;8.68;4.55;;;;;;;24.96;50.40;98458.88;4423430;32;20029;-68
2021/08/06 02:25:52;;;;;;;11.05;4.72;;;;;;;24.77;50.58;98452.94;4424572;32;20766;-68
2021/08/06 02:28:19;;;;;;;11.38;4.43;;;;;;;24.62;51.44;98455.94;4424322;32;20474;-68
2021/08/06 02:30:46;;;;;;;9.45;4.62;;;;;;;24.66;51.32;98444.81;4425115;32;20046;-68
2021/08/06 02:33:13;;;;;;;9.70;5.43;;;;;;;24.80;51.13;98446.03;4423844;32;20078;-68
2021/08/06 02:35:39;;;;;;;9.65;5.12;;;;;;;24.63;51.62;98443.09;4424652;32;20051;-68
2021/08/06 02:38:04;;;;;;;6.70;4.60;;;;;;;24.84;51.07;98443.47;4422990;32;20534;-68
2021/08/06 02:40:30;;;;;;;8.30;5.15;;;;;;;24.65;51.33;98428.91;4424291;32;20034;-68
2021/08/06 02:42:56;;;;;;;9.23;5.70;;;;;;;24.65;51.47;98437.53;4424680;32;20486;-68
2021/08/06 02:45:21;;;;;;;8.55;5.60;;;;;;;24.70;51.21;98432.91;4424515;32;20062;-68
2021/08/06 02:47:48;;;;;;;13.57;5.47;;;;;;;24.63;51.36;98436.56;4423568;32;20060;-68
2021/08/06 02:50:14;;;;;;;14.30;5.95;;;;;;;24.49;51.64;98429.63;4422479;32;20096;-68
2021/08/06 02:52:40;;;;;;;11.98;5.53;;;;;;;24.68;51.43;98439.25;4419338;32;20378;-68
2021/08/06 02:55:07;;;;;;;14.43;5.10;;;;;;;24.54;51.27;98435.12;4416019;32;20054;-68
2021/08/06 02:57:33;;;;;;;14.57;5.87;;;;;;;24.63;51.46;98437.34;4413347;32;20139;-68
2021/08/06 02:59:58;;;;;;;13.90;5.55;;;;;;;24.65;51.08;98431.78;4412204;32;20126;-68
2021/08/06 03:02:24;;;;;;;9.48;4.97;;;;;;;24.70;50.90;98435.78;4412670;32;20072;-68
2021/08/06 03:04:50;;;;;;;13.30;5.90;;;;;;;24.62;51.08;98435.06;4411904;32;20094;-68
2021/08/06 03:07:18;;;;;;;14.63;5.75;;;;;;;24.63;51.15;98437.34;4413321;32;20096;-68
2021/08/06 03:09:44;;;;;;;13.07;6.20;;;;;;;24.88;50.55;98446.69;4413340;32;20052;-68
2021/08/06 03:12:10;;;;;;;11.15;5.30;;;;;;;24.85;50.94;98439.22;4414121;32;20109;-68
2021/08/06 03:14:36;;;;;;;8.05;5.32;;;;;;;24.94;50.31;98438.56;4413066;32;20046;-68
2021/08/06 03:17:03;;;;;;;8.68;5.20;;;;;;;25.11;50.27;98429.94;4412411;32;20126;-68
2021/08/06 03:19:28;;;;;;;13.10;5.53;;;;;;;25.21;50.13;98436.50;4410724;32;20085;-68
2021/08/06 03:21:54;;;;;;;12.20;6.00;;;;;;;25.22;49.75;98435.12;4412135;32;20501;-68
2021/08/06 03:24:20;;;;;;;11.10;5.45;;;;;;;25.05;50.16;98431.53;4413457;32;20467;-68
2021/08/06 03:26:45;;;;;;;14.32;6.47;;;;;;;25.15;49.90;98424.50;4414495;32;20382;-68
2021/08/06 03:29:11;;;;;;;9.00;5.30;;;;;;;25.21;49.84;98427.88;4412986;32;20100;-68
2021/08/06 03:31:37;;;;;;;15.73;5.47;;;;;;;25.25;49.76;98424.56;4414184;32;20182;-69
2021/08/06 03:34:03;;;;;;;9.70;5.25;;;;;;;25.23;49.99;98430.94;4412933;32;20035;-68
2021/08/06 03:36:29;;;;;;;14.85;5.28;;;;;;;25.18;49.69;98422.53;4413832;32;20098;-68
2021/08/06 03:38:55;;;;;;;12.95;5.07;;;;;;;25.16;49.43;98423.13;4411866;32;20339;-68
2021/08/06 03:41:22;;;;;;;11.23;5.18;;;;;;;25.14;50.10;98422.97;4413689;32;20116;-68
2021/08/06 03:43:48;;;;;;;13.73;4.57;;;;;;;25.26;49.73;98420.34;4409174;32;20022;-68
2021/08/06 03:46:14;;;;;;;14.00;5.25;;;;;;;25.28;49.44;98420.50;4412958;32;20108;-68
2021/08/06 03:48:40;;;;;;;12.10;5.25;;;;;;;25.22;49.52;98414.25;4412266;32;20053;-68
2021/08/06 03:51:06;;;;;;;11.60;4.53;;;;;;;25.04;49.73;98419.25;4414142;32;20086;-68
2021/08/06 03:53:32;;;;;;;8.88;4.97;;;;;;;24.92;49.85;98418.25;4411514;32;20042;-68
2021/08/06 03:55:58;;;;;;;13.13;5.28;;;;;;;24.70;50.23;98416.37;4412200;32;20041;-68
2021/08/06 03:58:23;;;;;;;12.02;4.60;;;;;;;24.43;50.74;98418.38;4412658;32;20139;-69
2021/08/06 04:00:49;;;;;;;12.52;5.57;;;;;;;24.40;50.98;98410.94;4412845;32;20078;-69
2021/08/06 04:03:14;;;;;;;11.00;5.00;;;;;;;24.33;51.10;98411.75;4410948;32;20076;-68
2021/08/06 04:05:40;;;;;;;8.38;4.60;;;;;;;24.21;51.30;98413.59;4411662;32;20209;-68
2021/08/06 04:08:07;;;;;;;10.15;4.82;;;;;;;24.15;51.39;98413.09;4411356;32;20109;-68
2021/08/06 04:10:34;;;;;;;8.45;5.05;;;;;;;24.27;51.15;98408.34;4412431;32;20443;-68
2021/08/06 04:13:00;;;;;;;12.13;5.15;;;;;;;24.19;51.23;98415.53;4412929;32;20061;-68
2021/08/06 04:15:25;;;;;;;8.90;5.25;;;;;;;24.09;51.20;98418.31;4412600;32;20069;-69
2021/08/06 04:17:51;;;;;;;7.43;4.37;;;;;;;24.12;51.48;98408.50;4410673;32;20458;-69
2021/08/06 04:20:18;;;;;;;15.52;4.62;;;;;;;24.10;51.72;98410.44;4411085;32;20470;-69
2021/08/06 04:22:44;;;;;;;9.38;4.40;;;;;;;24.39;50.92;98417.28;4411039;32;20429;-69
2021/08/06 04:25:11;;;;;;;9.85;4.10;;;;;;;24.37;51.10;98412.12;4412219;32;20033;-68
2021/08/06 04:27:37;;;;;;;7.40;3.67;;;;;;;24.60;50.58;98412.62;4412388;32;20080;-68
2021/08/06 04:30:06;;;;;;;9.30;3.95;;;;;;;24.44;50.61;98417.03;4411446;32;20165;-69
2021/08/06 04:32:31;;;;;;;12.00;4.18;;;;;;;24.50;50.39;98423.28;4412238;32;20097;-69
2021/08/06 04:34:57;;;;;;;9.55;4.47;;;;;;;24.45;50.26;98414.91;4411245;32;20092;-69
2021/08/06 04:37:23;;;;;;;9.95;3.90;;;;;;;24.68;49.81;98421.97;4412392;32;20110;-69
2021/08/06 04:39:48;;;;;;;9.38;4.65;;;;;;;24.74;49.75;98411.00;4411713;32;20554;-69
2021/08/06 04:42:15;;;;;;;12.32;4.32;;;;;;;24.81;49.68;98418.75;4411919;32;20416;-68
2021/08/06 04:44:40;;;;;;;6.68;3.80;;;;;;;24.82;49.68;98419.53;4412348;32;20384;-69
2021/08/06 04:47:07;;;;;;;14.93;4.90;;;;;;;24.67;49.69;98414.69;4411366;32;20042;-69
2021/08/06 04:49:32;;;;;;;15.80;4.30;;;;;;;24.70;50.11;98422.13;4410708;32;20470;-69
2021/08/06 04:51:58;;;;;;;12.27;4.05;;;;;;;25.05;49.80;98415.03;4415497;32;20038;-69
2021/08/06 04:54:24;;;;;;;13.18;4.00;;;;;;;25.04;49.46;98415.63;4411080;32;20048;-69
2021/08/06 04:56:50;;;;;;;13.57;3.87;;;;;;;25.19;49.05;98424.06;4411231;32;20030;-69
2021/08/06 04:59:16;;;;;;;14.95;3.95;;;;;;;25.26;48.94;98418.22;4411512;32;20394;-69
2021/08/06 05:01:41;;;;;;;9.18;3.83;;;;;;;25.37;48.73;98416.19;4411983;32;20608;-69
2021/08/06 05:04:07;;;;;;;7.37;3.55;;;;;;;25.43;48.52;98408.78;4411134;32;20038;-69
2021/08/06 05:06:33;;;;;;;10.48;3.97;;;;;;;25.34;48.77;98418.13;4407527;32;20482;-69
2021/08/06 05:08:59;;;;;;;14.52;4.53;;;;;;;25.40;48.36;98418.63;4410586;32;20038;-69
2021/08/06 05:11:26;;;;;;;9.93;4.72;;;;;;;25.74;48.36;98423.53;4410860;32;20156;-69
2021/08/06 05:13:52;;;;;;;13.77;4.20;;;;;;;25.80;48.22;98404.59;4411395;32;20068;-69
2021/08/06 05:16:18;;;;;;;16.77;4.68;;;;;;;25.90;48.15;98413.28;4411833;32;20506;-69
2021/08/06 05:18:44;;;;;;;12.23;4.68;;;;;;;25.90;47.96;98410.41;4410940;32;20615;-69
2021/08/06 05:21:10;;;;;;;11.80;4.53;;;;;;;25.81;47.73;98411.91;4409883;32;20113;-69
2021/08/06 05:23:36;;;;;;;9.15;3.97;;;;;;;25.72;48.14;98406.06;4412457;32;20038;-69
2021/08/06 05:26:02;;;;;;;10.75;4.30;;;;;;;25.72;48.12;98398.22;4411834;32;20066;-69
2021/08/06 05:28:28;;;;;;;14.63;5.28;;;;;;;25.38;48.25;98404.06;4409862;32;20056;-69
2021/08/06 05:30:54;;;;;;;13.23;4.90;;;;;;;25.47;48.62;98411.25;4411260;32;20101;-69
2021/08/06 05:33:20;;;;;;;10.15;5.15;;;;;;;25.82;48.07;98395.34;4410804;32;20025;-69
2021/08/06 05:35:45;;;;;;;13.05;5.35;;;;;;;25.64;48.44;98394.66;4411980;32;20042;-69
2021/08/06 05:38:11;;;;;;;15.45;5.47;;;;;;;25.44;48.54;98398.03;4409398;32;20073;-69
2021/08/06 05:40:37;;;;;;;12.65;5.00;;;;;;;25.53;48.51;98394.47;4411545;32;20050;-69
2021/08/06 05:43:03;;;;;;;14.38;4.90;;;;;;;25.50;48.28;98392.78;4410756;32;20106;-69
2021/08/06 05:45:28;;;;;;;18.90;4.70;;;;;;;25.81;48.26;98379.44;4409496;32;20050;-69
2021/08/06 05:47:55;;;;;;;16.27;5.30;;;;;;;25.60;48.82;98384.94;4408899;32;20094;-69
2021/08/06 05:50:23;;;;;;;11.25;4.45;;;;;;;26.11;47.51;98394.13;4410201;32;20060;-69
2021/08/06 05:52:49;;;;;;;8.85;3.97;;;;;;;26.35;47.27;98390.25;4409328;32;20179;-69
2021/08/06 05:55:15;;;;;;;10.18;4.60;;;;;;;26.09;47.18;98393.22;4413772;32;20118;-69
2021/08/06 05:57:42;;;;;;;14.13;4.28;;;;;;;26.31;46.67;98386.28;4411449;32;20029;-69
2021/08/06 06:00:09;;;;;;;10.38;4.30;;;;;;;26.22;46.75;98401.44;4408368;32;20435;-69
2021/08/06 06:02:35;;;;;;;10.65;3.87;;;;;;;26.38;46.68;98391.19;4412085;32;20741;-69
2021/08/06 06:05:01;;;;;;;9.65;4.12;;;;;;;26.32;46.65;98388.56;4410866;32;20130;-69
2021/08/06 06:07:27;;;;;;;11.70;4.43;;;;;;;26.24;46.80;98395.84;4410179;32;20132;-69
2021/08/06 06:09:52;;;;;;;13.45;3.87;;;;;;;26.03;47.04;98395.63;4408479;32;20033;-69
2021/08/06 06:12:18;;;;;;;8.40;3.72;;;;;;;26.00;47.51;98394.72;4410561;32;20061;-69
2021/08/06 06:14:44;;;;;;;14.48;4.45;;;;;;;26.24;47.14;98390.06;4409713;32;20034;-69
2021/08/06 06:17:11;;;;;;;10.23;4.65;;;;;;;25.71;47.85;98388.03;4409096;32;20038;-69
2021/08/06 06:19:37;;;;;;;12.85;3.80;;;;;;;25.88;48.58;98392.94;4408918;32;20068;-69
2021/08/06 06:22:04;;;;;;;11.48;4.28;;;;;;;25.67;49.17;98392.72;4410523;32;20066;-69
2021/08/06 06:24:30;;;;;;;10.80;4.12;;;;;;;25.81;49.12;98399.59;4410688;32;20030;-69
2021/08/06 06:26:57;;;;;;;12.10;4.25;;;;;;;25.67;49.17;98389.84;4411329;32;20064;-69
2021/08/06 06:29:22;;;;;;;10.82;4.00;;;;;;;25.67;48.47;98389.84;4410719;32;20735;-68
2021/08/06 06:31:48;;;;;;;9.00;3.92;;;;;;;25.87;49.03;98392.22;4415521;32;20034;-68
2021/08/06 06:34:14;;;;;;;10.70;3.80;;;;;;;26.05;48.48;98390.75;4414341;32;20046;-68
2021/08/06 06:36:39;;;;;;;14.87;4.12;;;;;;;26.14;47.95;98384.28;4412123;32;20093;-68
2021/08/06 06:39:05;;;;;;;10.77;3.50;;;;;;;26.04;47.71;98383.50;4410550;32;20078;-68
2021/08/06 06:41:32;;;;;;;6.50;3.17;;;;;;;26.12;48.03;98395.66;4412315;32;20045;-68
2021/08/06 06:43:58;;;;;;;20.05;3.53;;;;;;;26.21;47.88;98379.75;4410886;32;20133;-68
2021/08/06 06:46:24;;;;;;;9.80;3.30;;;;;;;25.93;48.09;98386.16;4411341;32;20456;-68
2021/08/06 06:48:50;;;;;;;10.18;3.22;;;;;;;26.12;48.51;98392.00;4411330;32;20130;-70
2021/08/06 06:51:16;;;;;;;10.77;3.05;;;;;;;25.83;48.88;98388.25;4413753;32;20045;-68
2021/08/06 06:53:41;;;;;;;10.23;3.22;;;;;;;25.86;48.77;98390.66;4412457;32;20373;-68
2021/08/06 06:56:07;;;;;;;7.45;2.90;;;;;;;25.77;48.97;98393.53;4413060;32;20038;-68
2021/08/06 06:58:35;;;;;;;5.85;2.62;;;;;;;25.58;49.27;98382.66;4410252;32;20396;-68
2021/08/06 07:01:01;;;;;;;7.75;2.65;;;;;;;25.26;49.48;98398.06;4412442;32;20128;-68
2021/08/06 07:03:27;;;;;;;8.38;2.75;;;;;;;24.92;50.85;98391.59;4413522;32;20073;-68
2021/08/06 07:05:52;;;;;;;4.35;2.25;;;;;;;24.74;50.95;98395.84;4411628;32;20107;-68
2021/08/06 07:08:18;;;;;;;4.93;2.42;;;;;;;24.73;51.14;98383.56;4412794;32;20085;-68
2021/08/06 07:10:44;;;;;;;4.30;1.80;;;;;;;24.74;51.14;98399.50;4413114;32;20045;-68
2021/08/06 07:13:10;;;;;;;4.03;2.15;;;;;;;25.14;50.34;98402.06;4411004;32;20488;-68
2021/08/06 07:15:35;;;;;;;4.40;2.22;;;;;;;25.21;50.31;98401.97;4410985;32;20583;-69
2021/08/06 07:18:01;;;;;;;5.40;2.00;;;;;;;25.60;49.46;98397.22;4410581;32;20050;-68
2021/08/06 07:20:27;;;;;;;6.28;3.00;;;;;;;25.82;48.54;98404.75;4413193;32;20105;-69
2021/08/06 07:22:55;;;;;;;7.57;2.55;;;;;;;26.13;48.06;98402.94;4412129;32;20042;-68
2021/08/06 07:25:22;;;;;;;3.12;1.42;;;;;;;26.16;48.37;98404.62;4412027;32;20086;-69
2021/08/06 07:27:47;;;;;;;12.30;5.35;;;;;;;26.30;46.99;98397.09;4412641;32;20034;-69
2021/08/06 07:30:14;;;;;;;5.35;1.40;;;;;;;26.74;46.45;98402.63;4411784;32;20156;-69
2021/08/06 07:32:41;;;;;;;7.78;3.08;;;;;;;27.04;45.88;98399.91;4410464;32;20063;-69
2021/08/06 07:35:07;;;;;;;5.30;1.83;;;;;;;27.19;45.95;98398.84;4412283;32;20062;-69
2021/08/06 07:37:34;;;;;;;7.85;3.67;;;;;;;27.57;45.02;98403.78;4411215;32;20068;-69
2021/08/06 07:39:59;;;;;;;4.78;1.75;;;;;;;27.16;45.24;98402.94;4411908;32;20105;-69
2021/08/06 07:42:25;;;;;;;5.68;2.28;;;;;;;27.33;44.52;98405.66;4411953;32;20477;-69
2021/08/06 07:44:51;;;;;;;3.42;2.10;;;;;;;27.53;44.42;98403.50;4411394;32;20674;-69
2021/08/06 07:47:16;;;;;;;17.52;7.87;;;;;;;27.47;44.65;98406.72;4409901;32;20594;-69
2021/08/06 07:49:42;;;;;;;7.90;3.00;;;;;;;27.43;44.84;98408.56;4409557;32;20402;-69
2021/08/06 07:52:10;;;;;;;9.27;3.87;;;;;;;27.67;43.97;98416.09;4411176;32;20080;-69
2021/08/06 07:54:36;;;;;;;6.30;2.85;;;;;;;27.90;42.84;98407.69;4412394;32;20154;-69
2021/08/06 07:57:02;;;;;;;6.78;3.58;;;;;;;27.57;43.48;98412.47;4410074;32;20081;-69
2021/08/06 07:59:28;;;;;;;5.75;2.20;;;;;;;27.52;43.30;98408.50;4411427;32;20116;-69
2021/08/06 08:01:54;;;;;;;4.85;2.03;;;;;;;27.13;44.49;98404.16;4412261;32;20107;-69
2021/08/06 08:04:20;;;;;;;3.05;1.83;;;;;;;26.94;45.75;98410.69;4412221;32;20039;-69
2021/08/06 08:06:46;;;;;;;12.50;5.28;;;;;;;26.44;47.19;98409.69;4411088;32;20065;-68
2021/08/06 08:09:12;;;;;;;7.82;3.20;;;;;;;26.08;48.49;98406.84;4409175;32;20478;-67
2021/08/06 08:11:39;;;;;;;22.35;11.48;;;;;;;25.53;50.27;98409.63;4411227;32;20029;-66
2021/08/06 08:14:05;;;;;;;6.45;3.30;;;;;;;26.01;49.74;98407.00;4411105;32;20466;-67
2021/08/06 08:16:30;;;;;;;29.12;15.10;;;;;;;25.87;50.71;98411.59;4410073;32;20038;-67
2021/08/06 08:18:57;;;;;;;7.43;3.05;;;;;;;25.71;50.92;98404.56;4410674;32;20045;-68
2021/08/06 08:21:23;;;;;;;4.55;2.12;;;;;;;25.47;51.08;98420.66;4411669;32;20081;-68
2021/08/06 08:23:49;;;;;;;9.38;6.32;;;;;;;25.76;50.27;98406.38;4412455;32;20030;-68
2021/08/06 08:26:16;;;;;;;6.72;3.10;;;;;;;25.96;50.03;98411.66;4411376;32;20305;-68
2021/08/06 08:28:42;;;;;;;4.05;2.67;;;;;;;25.32;50.93;98417.97;4410053;32;20237;-68
2021/08/06 08:31:08;;;;;;;3.97;1.50;;;;;;;25.09;51.37;98418.25;4412448;32;20049;-68
2021/08/06 08:33:33;;;;;;;1.40;1.20;;;;;;;25.29;51.08;98419.91;4410285;32;20445;-68
2021/08/06 08:35:59;;;;;;;5.62;2.03;;;;;;;25.25;50.80;98413.81;4411038;32;20042;-68
2021/08/06 08:38:25;;;;;;;5.70;2.20;;;;;;;25.29;50.61;98407.63;4411060;32;20069;-68
2021/08/06 08:40:51;;;;;;;3.15;1.92;;;;;;;25.53;50.92;98411.75;4412769;32;20023;-68
2021/08/06 08:43:17;;;;;;;3.80;1.60;;;;;;;25.98;49.97;98413.97;4409614;32;20108;-68
2021/08/06 08:45:43;;;;;;;3.28;1.25;;;;;;;26.24;48.87;98419.69;4409168;32;20026;-68
2021/08/06 08:48:11;;;;;;;2.53;1.50;;;;;;;26.35;48.52;98415.47;4406094;32;20107;-68
2021/08/06 08:50:39;;;;;;;5.50;1.62;;;;;;;27.06;48.13;98414.47;4409431;32;20078;-68
2021/08/06 08:53:06;;;;;;;5.40;2.55;;;;;;;27.16;46.20;98418.13;4411808;32;20113;-69
2021/08/06 08:55:32;;;;;;;3.75;1.85;;;;;;;27.36;46.51;98421.78;4409352;32;20100;-69
2021/08/06 08:57:59;;;;;;;5.37;2.97;;;;;;;27.42;46.08;98418.59;4410355;32;20045;-69
2021/08/06 09:00:25;;;;;;;3.10;1.52;;;;;;;27.48;46.40;98431.34;4410338;32;20075;-69
2021/08/06 09:02:51;;;;;;;4.15;1.90;;;;;;;27.22;46.74;98420.72;4409445;32;20056;-69
2021/08/06 09:05:20;;;;;;;3.80;1.92;;;;;;;27.46;45.98;98422.53;4410069;32;20420;-67
2021/08/06 09:07:46;;;;;;;3.25;0.80;;;;;;;28.06;45.47;98432.72;4410569;32;20308;-69
2021/08/06 09:15:45;;;;;;;5.00;1.83;;;;;;;27.58;45.54;98429.19;3979817;32;15026252;-69
2021/08/06 09:18:31;;;;;;;4.07;1.70;;;;;;;27.58;45.54;98429.19;4433973;32;20171;-69
2021/08/06 09:26:38;;;;;;;2.67;1.35;;;;;;;28.23;45.21;98441.19;3985351;32;15026159;-70
2021/08/06 09:34:26;;;;;;;15.48;7.75;;;;;;;29.67;42.47;98446.72;3975339;32;15033073;-70
2021/08/06 09:39:33;;;;;;;4.15;2.50;;;;;;;30.01;40.63;98446.03;3983251;32;15028545;-69
2021/08/06 09:41:59;;;;;;;6.25;2.25;;;;;;;30.01;40.63;98446.03;4433224;32;20064;-68
2021/08/06 09:44:28;;;;;;;5.50;1.37;;;;;;;29.51;40.98;98452.19;4432219;32;20073;-68
2021/08/06 09:46:54;;;;;;;2.08;0.80;;;;;;;29.45;40.45;98440.19;4428385;32;20128;-68
2021/08/06 09:49:21;;;;;;;2.10;1.08;;;;;;;29.88;40.05;98438.69;4432979;32;20095;-68
2021/08/06 09:51:49;;;;;;;7.55;3.80;;;;;;;29.67;39.65;98444.59;4434698;32;20468;-69
2021/08/06 09:57:11;;;;;;;4.10;1.60;;;;;;;30.40;37.65;98455.81;3983835;32;15023424;-68
2021/08/06 09:59:38;;;;;;;2.03;0.67;;;;;;;30.40;37.65;98455.81;4437304;32;20173;-69
2021/08/06 10:02:27;;;;;;;4.62;1.95;;;;;;;29.42;38.97;98443.59;4438757;32;20417;-68
2021/08/06 10:07:48;;;;;;;2.53;1.60;;;;;;;30.14;39.05;98437.47;3982113;32;15023009;-69
2021/08/06 10:10:19;;;;;;;5.65;3.22;;;;;;;30.14;39.05;98437.47;4435338;32;20083;-69
2021/08/06 10:12:45;;;;;;;13.02;6.22;;;;;;;29.68;38.67;98448.22;4431271;32;20473;-69
2021/08/06 10:15:12;;;;;;;2.20;1.33;;;;;;;29.13;40.11;98438.03;4435111;32;20076;-69
2021/08/06 10:17:38;;;;;;;6.90;2.83;;;;;;;28.85;40.73;98445.56;4434833;32;20075;-69
2021/08/06 10:20:06;;;;;;;5.05;3.92;;;;;;;29.32;39.81;98448.72;4435230;32;20086;-69
2021/08/06 10:22:32;;;;;;;4.93;1.65;;;;;;;29.79;39.42;98439.56;4433364;32;20310;-69
2021/08/06 10:24:58;;;;;;;4.25;1.77;;;;;;;30.24;37.81;98437.38;4429637;32;20173;-69
2021/08/06 10:27:26;;;;;;;12.27;4.57;;;;;;;30.03;37.62;98446.16;4432164;32;20061;-69
2021/08/06 10:29:59;;;;;;;4.72;2.40;;;;;;;30.49;36.65;98446.19;4437870;32;20056;-69
2021/08/06 10:32:25;;;;;;;24.67;10.82;;;;;;;30.32;37.05;98444.44;4434799;32;20059;-69
2021/08/06 10:35:17;;;;;;;13.45;7.20;;;;;;;30.05;37.74;98440.47;4435472;32;20065;-70
2021/08/06 10:38:04;;;;;;;16.73;8.50;;;;;;;30.46;36.90;98439.50;4434082;32;20043;-70
2021/08/06 10:48:39;;;;;;;17.65;7.45;;;;;;;31.89;34.30;98448.84;3980659;32;15024571;-69
2021/08/06 10:56:48;;;;;;;7.47;3.15;;;;;;;31.98;33.73;98447.91;4116216;31;15013790;-70
2021/08/06 10:59:14;;;;;;;4.12;1.75;;;;;;;31.98;33.73;98447.91;4452892;32;20130;-68
2021/08/06 11:01:42;;;;;;;7.70;4.22;;;;;;;30.61;35.14;98449.84;4454346;32;20071;-68
2021/08/06 11:06:52;;;;;;;7.00;0.90;;;;;;;30.38;35.69;98456.44;3979435;32;15028493;-68
2021/08/06 11:17:15;;;;;;;5.65;3.20;;;;;;;28.84;40.51;98467.19;3980307;32;15025766;-69
2021/08/06 11:19:43;;;;;;;13.90;5.82;;;;;;;28.84;40.51;98467.19;4436040;32;20056;-69
2021/08/06 11:22:29;;;;;;;23.33;8.77;;;;;;;28.04;42.74;98464.38;4437121;32;20517;-70
2021/08/06 11:30:15;;;;;;;4.93;1.90;;;;;;;29.22;39.10;98465.41;3982964;32;15026501;-71
2021/08/06 11:33:02;;;;;;;5.22;1.75;;;;;;;29.22;39.10;98465.41;4435769;32;20101;-71
2021/08/06 11:40:45;;;;;;;10.80;5.72;;;;;;;30.62;35.67;98486.22;3961578;32;15023368;-71
2021/08/06 11:43:13;;;;;;;19.55;9.40;;;;;;;30.62;35.67;98486.22;4413905;32;20200;-71
2021/08/06 11:45:40;;;;;;;6.95;2.28;;;;;;;31.47;34.86;98497.97;4416826;32;20045;-70
2021/08/06 11:48:06;;;;;;;14.98;6.87;;;;;;;31.60;34.02;98494.38;4412133;32;20087;-69
2021/08/06 11:55:49;;;;;;;7.80;3.05;;;;;;;30.35;38.15;98486.72;3983801;32;15022258;-71
2021/08/06 11:58:28;;;;;;;7.47;2.70;;;;;;;29.63;39.03;98478.34;4435534;32;20104;-71
2021/08/06 12:00:54;;;;;;;8.85;3.45;;;;;;;29.32;39.18;98492.91;4432695;32;20068;-71
2021/08/06 12:03:20;;;;;;;2.47;0.80;;;;;;;28.52;40.34;98487.34;4434351;32;20037;-71
2021/08/06 12:05:49;;;;;;;7.25;2.35;;;;;;;28.71;39.49;98479.31;4436053;32;20070;-71
2021/08/06 12:08:26;;;;;;;7.03;1.40;;;;;;;29.34;38.25;98477.81;4437179;32;20322;-71
2021/08/06 12:10:56;;;;;;;4.05;1.20;;;;;;;29.94;37.29;98499.97;4435238;32;20085;-71
2021/08/06 12:13:24;;;;;;;4.87;1.55;;;;;;;30.97;35.30;98489.84;4432558;32;20131;-71
2021/08/06 12:16:12;;;;;;;3.72;0.70;;;;;;;31.41;35.21;98500.50;4434416;32;20487;-71
2021/08/06 12:18:40;;;;;;;9.40;3.60;;;;;;;31.53;34.68;98499.06;4431379;32;20449;-70
2021/08/06 12:21:26;;;;;;;5.47;2.22;;;;;;;30.88;35.80;98502.38;4431308;32;20046;-69
2021/08/06 12:42:30;;;;;;;38.38;13.90;;;;;;;28.27;45.87;98522.44;3985173;32;15025039;-71
2021/08/06 12:47:52;;;;;;;30.00;15.90;;;;;;;29.21;44.62;98528.41;3974796;32;15022546;-69
2021/08/06 12:53:06;;;;;;;27.62;14.52;;;;;;;29.48;42.68;98528.78;3979454;32;15022897;-70
2021/08/06 12:55:33;;;;;;;7.95;3.70;;;;;;;29.48;42.68;98528.78;4433130;32;20372;-70
2021/08/06 13:00:37;;;;;;;2.00;1.20;;;;;;;29.47;40.32;98538.09;3980618;32;15026238;-70
2021/08/06 13:03:12;;;;;;;4.20;2.70;;;;;;;29.47;40.32;98538.09;4435818;32;20065;-71
2021/08/06 13:16:19;;;;;;;7.65;4.32;;;;;;;26.28;48.75;98563.38;3982500;32;15029064;-69
2021/08/06 13:18:45;;;;;;;6.05;2.40;;;;;;;26.28;48.75;98563.38;4427460;32;20110;-69
2021/08/06 13:21:12;;;;;;;4.00;2.60;;;;;;;25.60;48.74;98581.56;4430089;32;20070;-68